Time;durP1;ratioP1;P1;durP2;ratioP2;P2;SDS_P1;SDS_P2;PMS_P1;PMS_P2;Temp;Humidity;BMP_temperature;BMP_pressure;BME280_temperature;BME280_humidity;BME280_pressure;Samples;Min_cycle;Max_cycle;Signal;HPM_P1;HPM_P2
2023/09/22 00:02:08;;;;;;;4.40;0.88;;;20.00;68.70;;;;;;6217095;28;20034;-77
2023/09/22 00:05:15;;;;;;;2.40;0.60;;;20.00;69.00;;;;;;6215114;28;20034;-76
2023/09/22 00:08:16;;;;;;;2.88;0.70;;;20.00;69.20;;;;;;6216718;28;20068;-74
2023/09/22 00:11:17;;;;;;;1.33;0.68;;;20.00;69.30;;;;;;6214890;28;20128;-77
2023/09/22 00:14:18;;;;;;;3.22;0.90;;;19.90;69.40;;;;;;6217041;28;20618;-75
2023/09/22 00:17:19;;;;;;;4.22;0.70;;;19.90;69.50;;;;;;6216375;28;20034;-76
2023/09/22 00:20:20;;;;;;;0.60;0.50;;;19.90;69.80;;;;;;6231944;28;20026;-74
2023/09/22 00:23:21;;;;;;;3.00;0.80;;;19.90;69.80;;;;;;6241171;28;20030;-76
2023/09/22 00:26:22;;;;;;;2.63;0.60;;;19.80;70.10;;;;;;6240955;28;20069;-78
2023/09/22 00:29:23;;;;;;;2.10;0.77;;;19.80;70.30;;;;;;6222812;28;20044;-78
2023/09/22 00:32:23;;;;;;;2.28;0.60;;;19.80;70.30;;;;;;6241606;28;20045;-75
2023/09/22 00:35:25;;;;;;;3.33;0.57;;;19.80;70.50;;;;;;6241064;28;20119;-76
2023/09/22 00:38:26;;;;;;;0.80;0.60;;;19.80;70.50;;;;;;6222774;28;20030;-77
2023/09/22 00:41:27;;;;;;;1.88;0.47;;;19.70;70.60;;;;;;6204279;28;20041;-75
2023/09/22 00:44:28;;;;;;;1.15;0.40;;;19.70;70.70;;;;;;6218636;28;20041;-76
2023/09/22 00:47:29;;;;;;;3.17;0.73;;;19.70;70.90;;;;;;6240611;28;20125;-74
2023/09/22 00:50:30;;;;;;;1.33;0.60;;;19.80;71.00;;;;;;6238942;28;20076;-78
2023/09/22 00:53:34;;;;;;;0.52;0.50;;;19.80;71.00;;;;;;6239073;28;20021;-77
2023/09/22 00:56:35;;;;;;;3.83;0.55;;;19.90;70.80;;;;;;6240635;28;20055;-76
2023/09/22 00:59:36;;;;;;;2.00;0.65;;;19.90;70.60;;;;;;6238649;28;20397;-75
2023/09/22 01:02:38;;;;;;;7.18;0.80;;;19.80;70.50;;;;;;6238580;28;20056;-76
2023/09/22 01:05:39;;;;;;;1.98;0.63;;;19.90;70.70;;;;;;6238093;28;20124;-75
2023/09/22 01:08:39;;;;;;;5.10;0.47;;;19.80;70.60;;;;;;6221721;28;20034;-76
2023/09/22 01:11:41;;;;;;;0.80;0.45;;;19.80;70.70;;;;;;6239244;28;20056;-75
2023/09/22 01:14:43;;;;;;;0.75;0.60;;;19.70;70.70;;;;;;6238105;28;20053;-76
2023/09/22 01:17:44;;;;;;;1.23;0.57;;;19.60;70.80;;;;;;6232804;28;20025;-75
2023/09/22 01:20:45;;;;;;;3.25;0.65;;;19.60;70.90;;;;;;6214956;28;20766;-76
2023/09/22 01:23:46;;;;;;;1.40;0.52;;;19.60;70.80;;;;;;6213970;28;20382;-76
2023/09/22 01:26:47;;;;;;;7.15;0.60;;;19.60;70.60;;;;;;6214991;28;20034;-76
2023/09/22 01:29:48;;;;;;;1.92;0.50;;;19.60;70.50;;;;;;6197084;28;20112;-75
2023/09/22 01:32:48;;;;;;;1.45;0.52;;;19.60;70.10;;;;;;6197081;28;20438;-77
2023/09/22 01:35:49;;;;;;;0.30;0.30;;;19.50;70.00;;;;;;6196882;28;20459;-75
2023/09/22 01:38:50;;;;;;;1.27;0.70;;;19.50;70.00;;;;;;6207231;28;20116;-74
2023/09/22 01:41:51;;;;;;;2.03;0.57;;;19.40;70.00;;;;;;6239251;28;20029;-74
2023/09/22 01:44:53;;;;;;;1.15;0.50;;;19.40;70.10;;;;;;6233240;28;20030;-75
2023/09/22 01:47:54;;;;;;;2.05;0.45;;;19.40;70.30;;;;;;6196679;28;20112;-74
2023/09/22 01:51:01;;;;;;;1.30;0.47;;;19.50;70.50;;;;;;6214301;28;20033;-76
2023/09/22 01:54:03;;;;;;;3.42;0.50;;;19.50;70.50;;;;;;6213029;28;20057;-75
2023/09/22 01:57:04;;;;;;;3.63;0.68;;;19.50;70.40;;;;;;6212253;28;20038;-77
2023/09/22 02:00:06;;;;;;;2.22;0.65;;;19.50;70.40;;;;;;6212746;28;20472;-78
2023/09/22 02:03:12;;;;;;;1.20;0.50;;;19.50;70.20;;;;;;6214656;28;20092;-75
2023/09/22 02:06:14;;;;;;;1.20;0.43;;;19.50;70.20;;;;;;6212271;28;20041;-76
2023/09/22 02:09:15;;;;;;;1.75;0.50;;;19.50;70.30;;;;;;6214285;28;20117;-78
2023/09/22 02:12:16;;;;;;;7.22;0.77;;;19.50;70.30;;;;;;6197271;28;20033;-75
2023/09/22 02:15:17;;;;;;;3.78;0.55;;;19.50;70.30;;;;;;6238542;28;20037;-75
2023/09/22 02:18:19;;;;;;;3.08;0.70;;;19.40;70.30;;;;;;6238501;28;20116;-76
2023/09/22 02:21:19;;;;;;;0.73;0.40;;;19.40;70.20;;;;;;6220342;28;20034;-75
2023/09/22 02:24:20;;;;;;;2.83;0.60;;;19.40;70.20;;;;;;6236968;28;20033;-78
2023/09/22 02:27:23;;;;;;;0.65;0.35;;;19.40;70.30;;;;;;6238387;28;20112;-76
2023/09/22 02:30:26;;;;;;;0.63;0.38;;;19.40;69.70;;;;;;6220066;28;20037;-75
2023/09/22 02:33:29;;;;;;;0.57;0.32;;;19.40;69.10;;;;;;6220210;28;20143;-75
2023/09/22 02:36:30;;;;;;;1.20;0.25;;;19.40;68.90;;;;;;6198120;28;20046;-77
2023/09/22 02:39:31;;;;;;;2.45;0.40;;;19.40;68.30;;;;;;6213591;28;20022;-76
2023/09/22 02:42:35;;;;;;;0.73;0.52;;;19.40;67.80;;;;;;6211952;28;20084;-75
2023/09/22 02:45:40;;;;;;;0.30;0.20;;;19.50;67.90;;;;;;6202325;28;20355;-75
2023/09/22 02:48:41;;;;;;;0.60;0.40;;;19.50;68.30;;;;;;6211729;28;20446;-75
2023/09/22 02:51:42;;;;;;;0.65;0.45;;;19.60;68.60;;;;;;6213145;28;20048;-76
2023/09/22 02:54:42;;;;;;;1.13;0.50;;;19.70;68.90;;;;;;6228292;28;20053;-75
2023/09/22 02:57:43;;;;;;;2.05;0.50;;;19.70;68.80;;;;;;6213379;28;20172;-75
2023/09/22 03:00:44;;;;;;;1.25;0.47;;;19.70;68.50;;;;;;6213670;28;20113;-76
2023/09/22 03:03:45;;;;;;;0.57;0.40;;;19.70;68.40;;;;;;6213536;28;20125;-75
2023/09/22 03:06:46;;;;;;;2.53;0.85;;;19.80;68.40;;;;;;6227625;28;20054;-77
2023/09/22 03:09:47;;;;;;;1.15;0.45;;;19.70;68.10;;;;;;6238769;28;20040;-75
2023/09/22 03:12:51;;;;;;;1.92;0.35;;;19.70;68.00;;;;;;6218899;28;20033;-76
2023/09/22 03:15:53;;;;;;;2.05;0.38;;;19.60;68.10;;;;;;6200342;28;20106;-77
2023/09/22 03:18:53;;;;;;;0.77;0.32;;;19.60;68.40;;;;;;6199883;28;20105;-75
2023/09/22 03:21:56;;;;;;;1.17;0.38;;;19.60;68.30;;;;;;6199794;28;20042;-75
2023/09/22 03:24:57;;;;;;;0.40;0.13;;;19.60;68.00;;;;;;6200063;28;20037;-74
2023/09/22 03:27:58;;;;;;;1.08;0.43;;;19.60;67.90;;;;;;6199616;28;20036;-75
2023/09/22 03:30:59;;;;;;;3.70;0.55;;;19.60;67.80;;;;;;6199329;28;20572;-76
2023/09/22 03:34:00;;;;;;;1.00;0.35;;;19.60;67.80;;;;;;6199619;28;20185;-75
2023/09/22 03:37:08;;;;;;;2.53;0.32;;;19.60;67.60;;;;;;6199155;28;20034;-76
2023/09/22 03:40:13;;;;;;;2.08;0.30;;;19.60;67.60;;;;;;6199096;28;20033;-76
2023/09/22 03:43:13;;;;;;;0.75;0.45;;;19.50;67.30;;;;;;6199338;28;20041;-74
2023/09/22 03:46:14;;;;;;;0.90;0.50;;;19.40;67.50;;;;;;6234089;28;20136;-76
2023/09/22 03:49:16;;;;;;;0.88;0.38;;;19.40;67.60;;;;;;6240254;28;20072;-75
2023/09/22 03:52:20;;;;;;;4.68;0.30;;;19.50;67.60;;;;;;6240445;28;20071;-76
2023/09/22 03:55:21;;;;;;;1.13;0.45;;;19.40;67.50;;;;;;6242386;28;20086;-75
2023/09/22 03:58:22;;;;;;;0.45;0.30;;;19.40;67.40;;;;;;6240055;28;20033;-74
2023/09/22 04:01:22;;;;;;;0.15;0.13;;;19.40;67.40;;;;;;6241279;28;20115;-75
2023/09/22 04:04:23;;;;;;;0.15;0.10;;;19.40;67.40;;;;;;6235052;28;20042;-75
2023/09/22 04:07:24;;;;;;;2.30;0.52;;;19.30;67.40;;;;;;6223330;28;20740;-75
2023/09/22 04:10:25;;;;;;;0.25;0.22;;;19.30;67.60;;;;;;6218642;28;20064;-75
2023/09/22 04:13:27;;;;;;;0.22;0.13;;;19.20;67.70;;;;;;6239805;28;20041;-75
2023/09/22 04:16:28;;;;;;;6.15;0.57;;;19.20;67.70;;;;;;6222409;28;20044;-75
2023/09/22 04:19:33;;;;;;;0.30;0.20;;;19.10;67.70;;;;;;6240465;28;20499;-76
2023/09/22 04:22:37;;;;;;;1.45;0.35;;;19.10;67.50;;;;;;6241653;28;20075;-76
2023/09/22 04:25:38;;;;;;;0.80;0.35;;;19.10;67.40;;;;;;6239652;28;20142;-76
2023/09/22 04:28:39;;;;;;;0.98;0.50;;;19.10;67.40;;;;;;6239154;28;20132;-76
2023/09/22 04:31:40;;;;;;;1.02;0.60;;;19.00;67.70;;;;;;6240587;28;20155;-78
2023/09/22 04:34:41;;;;;;;1.85;0.90;;;19.00;67.90;;;;;;6241026;28;20073;-75
2023/09/22 04:37:41;;;;;;;2.33;1.17;;;19.00;68.30;;;;;;6240722;28;20052;-74
2023/09/22 04:40:43;;;;;;;2.65;0.82;;;19.00;68.50;;;;;;6239230;28;20033;-74
2023/09/22 04:43:43;;;;;;;4.80;1.17;;;19.00;68.50;;;;;;6240637;28;20029;-75
2023/09/22 04:46:44;;;;;;;3.03;1.67;;;19.00;68.50;;;;;;6233771;28;20748;-77
2023/09/22 04:49:45;;;;;;;1.88;0.98;;;19.00;68.50;;;;;;6238724;28;20037;-75
2023/09/22 04:52:46;;;;;;;2.78;1.00;;;19.10;68.40;;;;;;6240507;28;20045;-74
2023/09/22 04:55:48;;;;;;;2.70;1.10;;;19.10;68.50;;;;;;6240155;28;20041;-74
2023/09/22 04:58:53;;;;;;;1.65;1.20;;;19.10;68.10;;;;;;6240552;28;20065;-75
2023/09/22 05:01:56;;;;;;;1.83;1.23;;;19.20;68.10;;;;;;6240218;28;20018;-75
2023/09/22 05:04:57;;;;;;;3.03;1.30;;;19.20;68.00;;;;;;6239906;28;20437;-74
2023/09/22 05:07:59;;;;;;;1.33;1.00;;;19.20;67.80;;;;;;6239554;28;20029;-75
2023/09/22 05:11:04;;;;;;;2.90;1.42;;;19.30;67.80;;;;;;6221142;28;20044;-77
2023/09/22 05:14:05;;;;;;;1.85;0.73;;;19.30;67.60;;;;;;6239769;28;20029;-75
2023/09/22 05:17:06;;;;;;;0.50;0.50;;;19.30;67.40;;;;;;6232351;28;20084;-76
2023/09/22 05:20:13;;;;;;;0.75;0.50;;;19.40;67.20;;;;;;6219815;28;20029;-77
2023/09/22 05:23:13;;;;;;;5.57;0.73;;;19.40;66.80;;;;;;6234332;28;20034;-75
2023/09/22 05:26:14;;;;;;;1.15;0.73;;;19.40;66.40;;;;;;6236802;28;20136;-76
2023/09/22 05:29:15;;;;;;;3.45;0.80;;;19.50;66.00;;;;;;6214860;28;20468;-77
2023/09/22 05:32:15;;;;;;;1.55;0.75;;;19.50;65.50;;;;;;6213734;28;20038;-73
2023/09/22 05:35:16;;;;;;;0.88;0.77;;;19.50;65.60;;;;;;6214245;28;20135;-74
2023/09/22 05:38:17;;;;;;;3.58;0.80;;;19.40;65.90;;;;;;6212660;28;20393;-75
2023/09/22 05:41:18;;;;;;;1.05;0.70;;;19.40;66.20;;;;;;6213669;28;20064;-74
2023/09/22 05:44:19;;;;;;;2.97;0.90;;;19.30;66.20;;;;;;6216008;28;20446;-74
2023/09/22 05:47:20;;;;;;;2.05;0.82;;;19.30;66.30;;;;;;6231501;28;20492;-74
2023/09/22 05:50:23;;;;;;;1.05;0.88;;;19.30;66.20;;;;;;6238264;28;20052;-76
2023/09/22 05:53:27;;;;;;;8.00;0.93;;;19.30;66.30;;;;;;6238180;28;20037;-76
2023/09/22 05:56:28;;;;;;;1.13;0.75;;;19.30;66.30;;;;;;6237892;28;20048;-74
2023/09/22 05:59:29;;;;;;;0.95;0.55;;;19.30;66.20;;;;;;6206731;28;20033;-74
2023/09/22 06:02:30;;;;;;;3.42;0.40;;;19.40;66.10;;;;;;6213739;28;20081;-75
2023/09/22 06:05:31;;;;;;;3.70;1.17;;;19.40;66.10;;;;;;6213412;28;20049;-75
2023/09/22 06:08:32;;;;;;;1.25;0.50;;;19.40;66.10;;;;;;6213698;28;20099;-74
2023/09/22 06:11:33;;;;;;;1.60;0.52;;;19.40;66.10;;;;;;6224822;28;20523;-74
2023/09/22 06:14:34;;;;;;;2.70;0.55;;;19.40;66.00;;;;;;6237888;28;20355;-74
2023/09/22 06:17:36;;;;;;;3.35;0.77;;;19.30;65.80;;;;;;6237497;28;20041;-74
2023/09/22 06:20:37;;;;;;;0.88;0.70;;;19.40;65.70;;;;;;6222173;28;20048;-74
2023/09/22 06:23:40;;;;;;;4.78;1.08;;;19.40;65.50;;;;;;6212926;28;20072;-74
2023/09/22 06:26:41;;;;;;;2.28;0.85;;;19.40;65.50;;;;;;6211219;28;20056;-74
2023/09/22 06:29:42;;;;;;;3.85;1.02;;;19.40;65.70;;;;;;6213073;28;20034;-76
2023/09/22 06:32:45;;;;;;;3.55;0.88;;;19.40;65.60;;;;;;6213584;28;20095;-75
2023/09/22 06:35:46;;;;;;;1.65;0.50;;;19.30;65.50;;;;;;6210945;28;20081;-74
2023/09/22 06:38:47;;;;;;;2.15;0.50;;;19.40;66.40;;;;;;6212725;28;20030;-76
2023/09/22 06:41:48;;;;;;;1.98;0.90;;;19.40;65.10;;;;;;6212667;28;20532;-76
2023/09/22 06:44:51;;;;;;;0.50;0.40;;;19.30;64.60;;;;;;6200929;28;20052;-73
2023/09/22 06:47:52;;;;;;;6.05;0.68;;;19.30;64.30;;;;;;6213089;28;20095;-75
2023/09/22 06:51:02;;;;;;;2.20;0.82;;;19.30;63.80;;;;;;6227463;28;20026;-75
2023/09/22 06:54:04;;;;;;;1.08;0.70;;;19.30;63.90;;;;;;6219213;28;20053;-74
2023/09/22 06:57:05;;;;;;;2.85;0.77;;;19.20;63.60;;;;;;6218873;28;20070;-73
2023/09/22 07:00:18;;;;;;;0.80;0.50;;;19.20;63.80;;;;;;6236937;28;20604;-73
2023/09/22 07:03:19;;;;;;;1.15;0.70;;;19.10;64.00;;;;;;6236804;28;20056;-75
2023/09/22 07:06:20;;;;;;;1.75;0.93;;;19.10;64.10;;;;;;6237353;28;20041;-74
2023/09/22 07:09:21;;;;;;;3.20;0.85;;;18.90;64.30;;;;;;6237405;28;20035;-74
2023/09/22 07:12:22;;;;;;;1.30;0.73;;;19.00;64.90;;;;;;6236735;28;20029;-73
2023/09/22 07:15:23;;;;;;;2.70;0.73;;;19.00;65.20;;;;;;6236885;28;20196;-75
2023/09/22 07:18:25;;;;;;;1.95;0.90;;;18.90;65.30;;;;;;6237028;28;20034;-74
2023/09/22 07:21:27;;;;;;;7.82;0.90;;;18.90;65.40;;;;;;6234983;28;20645;-76
2023/09/22 07:24:27;;;;;;;1.92;0.82;;;19.00;65.40;;;;;;6235675;28;20434;-74
2023/09/22 07:27:28;;;;;;;1.02;0.80;;;19.00;65.10;;;;;;6219074;28;20049;-74
2023/09/22 07:30:29;;;;;;;1.05;0.57;;;19.00;65.00;;;;;;6236980;28;20032;-74
2023/09/22 07:33:32;;;;;;;2.05;0.82;;;19.00;65.00;;;;;;6236726;28;20037;-73
2023/09/22 07:36:33;;;;;;;2.83;0.70;;;19.10;64.90;;;;;;6236468;28;20033;-75
2023/09/22 07:39:35;;;;;;;4.35;1.00;;;19.10;64.70;;;;;;6236681;28;20081;-76
2023/09/22 07:42:38;;;;;;;3.50;1.00;;;19.30;64.60;;;;;;6236863;28;20021;-73
2023/09/22 07:45:39;;;;;;;4.25;1.15;;;19.30;64.30;;;;;;6234585;28;20060;-75
2023/09/22 07:48:40;;;;;;;1.52;1.10;;;19.40;64.10;;;;;;6236318;28;20680;-74
2023/09/22 07:51:41;;;;;;;1.58;0.60;;;19.50;64.00;;;;;;6218598;28;20033;-74
2023/09/22 07:54:42;;;;;;;1.38;0.75;;;19.60;63.50;;;;;;6238345;28;20465;-75
2023/09/22 07:57:47;;;;;;;1.15;0.70;;;19.60;63.00;;;;;;6240877;28;20033;-74
2023/09/22 08:00:48;;;;;;;1.33;0.70;;;19.70;63.00;;;;;;6240499;28;20120;-73
2023/09/22 08:03:49;;;;;;;2.53;0.88;;;19.90;62.80;;;;;;6240179;28;20036;-75
2023/09/22 08:06:50;;;;;;;1.02;0.75;;;20.00;62.40;;;;;;6240298;28;20048;-75
2023/09/22 08:09:51;;;;;;;1.10;0.68;;;20.10;62.20;;;;;;6222234;28;20163;-75
2023/09/22 08:12:53;;;;;;;0.98;0.70;;;20.30;61.80;;;;;;6240039;28;20029;-75
2023/09/22 08:15:53;;;;;;;3.22;0.80;;;20.40;61.20;;;;;;6240414;28;20073;-74
2023/09/22 08:18:55;;;;;;;1.77;1.08;;;20.50;60.20;;;;;;6222580;28;20029;-74
2023/09/22 08:21:55;;;;;;;2.75;1.42;;;20.60;60.00;;;;;;6221507;28;20029;-74
2023/09/22 08:24:56;;;;;;;0.98;0.60;;;20.70;59.40;;;;;;6239827;28;20131;-74
2023/09/22 08:27:58;;;;;;;3.90;1.30;;;20.70;58.90;;;;;;6238240;28;20116;-75
2023/09/22 08:30:59;;;;;;;5.15;1.77;;;20.80;58.80;;;;;;6239682;28;20037;-75
2023/09/22 08:34:00;;;;;;;2.90;0.63;;;20.90;58.70;;;;;;6239957;28;20055;-74
2023/09/22 08:37:01;;;;;;;3.47;1.08;;;21.00;58.50;;;;;;6238580;28;20042;-75
2023/09/22 08:40:04;;;;;;;2.67;1.33;;;21.10;58.00;;;;;;6238821;28;20043;-75
2023/09/22 08:43:05;;;;;;;5.07;2.55;;;21.20;58.00;;;;;;6240091;28;20144;-74
2023/09/22 08:46:06;;;;;;;2.15;1.00;;;21.20;57.80;;;;;;6239306;28;20185;-73
2023/09/22 08:49:07;;;;;;;1.35;0.65;;;21.40;57.40;;;;;;6221710;28;20064;-73
2023/09/22 08:52:08;;;;;;;5.82;1.00;;;21.40;57.20;;;;;;6221334;28;20037;-74
2023/09/22 08:55:14;;;;;;;3.65;0.70;;;21.40;57.00;;;;;;6239552;28;20041;-74
2023/09/22 08:58:15;;;;;;;1.95;0.85;;;21.40;56.80;;;;;;6239429;28;20034;-75
2023/09/22 09:01:16;;;;;;;7.07;0.80;;;21.40;56.60;;;;;;6239059;28;20461;-76
2023/09/22 09:04:31;;;;;;;2.13;1.05;;;21.50;56.40;;;;;;6237453;28;20040;-74
2023/09/22 09:07:33;;;;;;;2.45;0.77;;;21.50;56.30;;;;;;6237704;28;20171;-75
2023/09/22 09:10:34;;;;;;;2.90;0.70;;;21.70;55.80;;;;;;6217681;28;20038;-74
2023/09/22 09:13:37;;;;;;;1.48;0.60;;;21.80;55.50;;;;;;6239478;28;20398;-73
2023/09/22 09:16:39;;;;;;;1.15;0.50;;;21.90;55.10;;;;;;6239042;28;20033;-74
2023/09/22 09:19:40;;;;;;;1.77;0.95;;;22.20;54.70;;;;;;6238160;28;20026;-74
2023/09/22 09:22:40;;;;;;;1.23;0.65;;;22.20;54.20;;;;;;6238512;28;20196;-76
2023/09/22 09:25:45;;;;;;;1.40;0.77;;;22.30;53.90;;;;;;6238562;28;20029;-74
2023/09/22 09:28:46;;;;;;;2.60;1.13;;;22.40;53.60;;;;;;6220578;28;20044;-75
2023/09/22 09:31:47;;;;;;;0.68;0.50;;;22.50;53.30;;;;;;6237785;28;20033;-76
2023/09/22 09:34:48;;;;;;;3.45;1.00;;;22.70;53.00;;;;;;6238008;28;20045;-75
2023/09/22 09:38:03;;;;;;;3.13;0.63;;;22.80;52.70;;;;;;6236817;28;20477;-74
2023/09/22 09:41:04;;;;;;;1.10;0.70;;;22.90;52.40;;;;;;6236396;28;20124;-74
2023/09/22 09:44:07;;;;;;;0.75;0.68;;;23.00;51.90;;;;;;6210882;28;20099;-74
2023/09/22 09:47:09;;;;;;;3.85;0.82;;;23.10;52.10;;;;;;6231801;28;20138;-75
2023/09/22 09:50:12;;;;;;;4.90;1.23;;;23.10;51.40;;;;;;6238339;28;20404;-73
2023/09/22 09:53:16;;;;;;;2.55;0.77;;;23.20;51.30;;;;;;6238837;28;20037;-74
2023/09/22 09:56:18;;;;;;;1.10;0.45;;;23.20;51.20;;;;;;6238514;28;20040;-75
2023/09/22 09:59:20;;;;;;;1.73;0.70;;;23.50;50.90;;;;;;6238264;28;20037;-73
2023/09/22 10:02:22;;;;;;;1.25;0.65;;;23.30;50.40;;;;;;6238549;28;20021;-75
2023/09/22 10:05:23;;;;;;;1.48;0.47;;;23.30;50.10;;;;;;6237897;28;20113;-75
2023/09/22 10:08:26;;;;;;;0.38;0.35;;;23.30;49.80;;;;;;6237846;28;20044;-75
2023/09/22 10:11:29;;;;;;;2.63;0.60;;;23.30;49.90;;;;;;6219317;28;20064;-76
2023/09/22 10:14:46;;;;;;;1.48;1.00;;;23.30;49.80;;;;;;6219869;28;20055;-74
2023/09/22 10:17:55;;;;;;;1.50;0.70;;;23.30;49.80;;;;;;6219427;28;20692;-75
2023/09/22 10:20:55;;;;;;;;;;;23.40;50.00;;;;;;6237925;28;20041;-74
2023/09/22 10:24:15;;;;;;;0.90;0.50;;;23.40;49.90;;;;;;6235853;28;19971;-74
2023/09/22 10:27:17;;;;;;;2.03;0.55;;;23.60;49.70;;;;;;6237737;28;20033;-76
2023/09/22 10:30:19;;;;;;;5.90;1.10;;;23.70;49.10;;;;;;6237971;28;20041;-76
2023/09/22 10:33:23;;;;;;;5.78;0.70;;;23.90;48.40;;;;;;6237881;28;20041;-76
2023/09/22 10:36:47;;;;;;;1.85;0.50;;;24.10;47.80;;;;;;6219708;28;20038;-76
2023/09/22 10:39:54;;;;;;;0.90;0.70;;;24.30;46.80;;;;;;6235387;28;20103;-75
2023/09/22 10:42:54;;;;;;;3.50;0.60;;;24.60;45.50;;;;;;6236223;28;20029;-77
2023/09/22 10:45:55;;;;;;;2.50;0.70;;;24.90;44.40;;;;;;6229361;28;20497;-76
2023/09/22 10:48:57;;;;;;;1.27;0.80;;;25.10;44.00;;;;;;6212846;28;20048;-77
2023/09/22 10:51:58;;;;;;;1.17;0.50;;;25.40;43.40;;;;;;6212906;28;20050;-74
2023/09/22 10:54:59;;;;;;;4.65;0.50;;;25.70;42.40;;;;;;6227498;28;20033;-75
2023/09/22 10:58:00;;;;;;;5.45;1.17;;;25.90;41.90;;;;;;6228045;28;20113;-75
2023/09/22 11:01:08;;;;;;;2.30;0.70;;;26.00;41.20;;;;;;6211927;28;20061;-77
2023/09/22 11:04:09;;;;;;;1.63;0.60;;;25.90;41.10;;;;;;6211543;28;20417;-75
2023/09/22 11:07:11;;;;;;;2.92;0.70;;;25.80;41.30;;;;;;6212072;28;20030;-75
2023/09/22 11:10:21;;;;;;;2.92;0.75;;;25.70;41.40;;;;;;6213188;28;20061;-75
2023/09/22 11:13:22;;;;;;;1.30;0.45;;;25.70;41.40;;;;;;6236674;28;20032;-75
2023/09/22 11:16:24;;;;;;;1.00;0.50;;;25.80;41.20;;;;;;6219340;28;20136;-76
2023/09/22 11:19:25;;;;;;;2.95;0.60;;;26.00;41.00;;;;;;6236883;28;20035;-74
2023/09/22 11:22:31;;;;;;;1.25;0.60;;;26.10;40.20;;;;;;6235384;28;20029;-75
2023/09/22 11:25:32;;;;;;;1.10;0.38;;;26.20;39.50;;;;;;6234563;28;20029;-76
2023/09/22 11:28:34;;;;;;;4.35;0.80;;;26.10;39.50;;;;;;6235932;28;20033;-76
2023/09/22 11:31:46;;;;;;;4.65;0.52;;;26.10;39.60;;;;;;6240597;28;20068;-75
2023/09/22 11:34:50;;;;;;;1.80;1.15;;;26.30;39.30;;;;;;6241553;28;20058;-76
2023/09/22 11:37:51;;;;;;;1.25;0.52;;;26.60;38.90;;;;;;6232656;28;20061;-75
2023/09/22 11:40:59;;;;;;;1.30;0.50;;;26.70;38.50;;;;;;6240900;28;20039;-75
2023/09/22 11:44:00;;;;;;;0.82;0.40;;;27.20;37.90;;;;;;6240588;28;20029;-74
2023/09/22 11:47:02;;;;;;;3.17;0.80;;;27.70;37.00;;;;;;6240615;28;20148;-76
2023/09/22 11:50:03;;;;;;;3.92;0.93;;;28.10;36.20;;;;;;6222721;28;20115;-76
2023/09/22 11:53:22;;;;;;;3.03;0.88;;;28.50;35.40;;;;;;6240688;28;20102;-76
2023/09/22 11:56:23;;;;;;;2.58;0.80;;;28.90;35.00;;;;;;6238989;28;20438;-76
2023/09/22 11:59:31;;;;;;;2.67;0.50;;;29.50;34.10;;;;;;6240243;28;20032;-75
2023/09/22 12:02:32;;;;;;;;;;;30.10;33.30;;;;;;6239743;28;20028;-73
2023/09/22 12:05:36;;;;;;;6.15;1.35;;;30.70;32.30;;;;;;6239866;28;20012;-75
2023/09/22 12:08:37;;;;;;;4.25;0.95;;;31.30;32.00;;;;;;6240273;28;20072;-75
2023/09/22 12:11:39;;;;;;;1.42;0.65;;;31.90;30.50;;;;;;6221737;28;20502;-75
2023/09/22 12:14:40;;;;;;;2.83;0.85;;;32.40;29.70;;;;;;6222276;28;20075;-75
2023/09/22 12:17:41;;;;;;;1.73;0.50;;;32.50;28.90;;;;;;6221601;28;20033;-75
2023/09/22 12:20:42;;;;;;;5.45;0.80;;;32.40;29.10;;;;;;6239823;28;20026;-74
2023/09/22 12:23:42;;;;;;;3.95;0.80;;;32.80;28.80;;;;;;6237877;28;20037;-75
2023/09/22 12:26:43;;;;;;;1.75;0.93;;;33.50;27.90;;;;;;6239898;28;20143;-75
2023/09/22 12:29:44;;;;;;;1.20;0.73;;;34.30;27.30;;;;;;6239368;28;20037;-74
2023/09/22 12:32:45;;;;;;;4.05;0.93;;;34.60;26.50;;;;;;6239839;28;20037;-76
2023/09/22 12:35:50;;;;;;;1.90;1.08;;;34.70;26.00;;;;;;6239387;28;20060;-76
2023/09/22 12:38:51;;;;;;;3.33;1.23;;;35.10;25.90;;;;;;6239449;28;20040;-76
2023/09/22 12:41:52;;;;;;;2.17;0.80;;;35.30;25.40;;;;;;6238828;28;20423;-75
2023/09/22 12:44:53;;;;;;;0.85;0.50;;;35.60;25.20;;;;;;6233153;28;20470;-77
2023/09/22 12:47:54;;;;;;;2.33;0.90;;;36.00;24.70;;;;;;6238692;28;20033;-74
2023/09/22 12:50:55;;;;;;;3.55;0.80;;;35.90;24.70;;;;;;6237408;28;20052;-75
2023/09/22 12:53:56;;;;;;;2.55;0.88;;;34.90;25.20;;;;;;6239005;28;20072;-74
2023/09/22 12:56:57;;;;;;;1.85;0.85;;;34.20;25.80;;;;;;6238700;28;20037;-76
2023/09/22 13:00:03;;;;;;;1.95;0.70;;;33.80;25.90;;;;;;6237187;28;20092;-75
2023/09/22 13:03:04;;;;;;;0.75;0.43;;;34.10;25.50;;;;;;6237699;28;20140;-75
2023/09/22 13:06:07;;;;;;;0.82;0.52;;;34.40;25.30;;;;;;6238687;28;20533;-75
2023/09/22 13:09:08;;;;;;;0.73;0.50;;;34.50;25.20;;;;;;6238625;28;20041;-74
2023/09/22 13:12:09;;;;;;;3.65;0.65;;;34.90;25.00;;;;;;6238413;28;20037;-74
2023/09/22 13:15:10;;;;;;;1.75;0.75;;;35.20;24.60;;;;;;6238516;28;20043;-77
2023/09/22 13:18:13;;;;;;;4.90;0.90;;;35.40;24.10;;;;;;6237072;28;20449;-74
2023/09/22 13:21:14;;;;;;;3.05;0.90;;;36.00;23.50;;;;;;6238510;28;20048;-73
2023/09/22 13:24:16;;;;;;;1.25;0.50;;;36.30;22.50;;;;;;6238312;28;20044;-74
2023/09/22 13:27:17;;;;;;;1.88;0.77;;;35.60;22.80;;;;;;6238360;28;20036;-74
2023/09/22 13:30:18;;;;;;;2.28;0.80;;;34.70;23.30;;;;;;6228027;28;20037;-74
2023/09/22 13:33:26;;;;;;;2.78;0.60;;;33.90;23.80;;;;;;6238630;28;20116;-76
2023/09/22 13:36:26;;;;;;;2.15;0.60;;;33.00;24.20;;;;;;6238062;28;20152;-75
2023/09/22 13:39:27;;;;;;;2.28;0.80;;;32.00;24.90;;;;;;6220371;28;20029;-75
2023/09/22 13:42:28;;;;;;;1.30;0.50;;;31.20;25.70;;;;;;6238208;28;20029;-76
2023/09/22 13:45:36;;;;;;;5.57;0.65;;;30.50;26.30;;;;;;6237974;28;20190;-75
2023/09/22 13:48:37;;;;;;;1.27;0.70;;;29.90;26.90;;;;;;6237919;28;20029;-74
2023/09/22 13:51:38;;;;;;;1.08;0.52;;;29.40;27.20;;;;;;6236990;28;20056;-76
2023/09/22 13:54:40;;;;;;;3.80;0.73;;;29.00;27.50;;;;;;6235813;28;20093;-73
2023/09/22 13:57:42;;;;;;;0.75;0.50;;;28.60;27.70;;;;;;6235223;28;20063;-74
2023/09/22 14:00:43;;;;;;;2.65;0.63;;;28.40;27.80;;;;;;6237370;28;20021;-75
2023/09/22 14:03:44;;;;;;;2.60;0.70;;;28.20;28.00;;;;;;6236104;28;20034;-77
2023/09/22 14:06:45;;;;;;;1.73;0.50;;;28.00;28.30;;;;;;6234144;28;20453;-76
2023/09/22 14:09:45;;;;;;;1.00;0.30;;;27.80;28.30;;;;;;6227220;28;20026;-74
2023/09/22 14:12:46;;;;;;;1.67;0.45;;;27.70;28.40;;;;;;6226317;28;20034;-76
2023/09/22 14:15:48;;;;;;;0.60;0.40;;;27.60;28.20;;;;;;6218234;28;20409;-74
2023/09/22 14:18:49;;;;;;;3.22;0.88;;;27.50;28.80;;;;;;6219800;28;20120;-75
2023/09/22 14:21:51;;;;;;;1.58;0.50;;;27.40;28.50;;;;;;6224412;28;20049;-76
2023/09/22 14:24:52;;;;;;;1.65;0.52;;;27.40;28.60;;;;;;6224453;28;20026;-75
2023/09/22 14:27:53;;;;;;;3.72;0.60;;;27.30;28.70;;;;;;6228070;28;20049;-77
2023/09/22 14:30:54;;;;;;;2.88;0.73;;;27.40;28.70;;;;;;6206443;28;20060;-75
2023/09/22 14:33:58;;;;;;;2.30;0.47;;;27.60;28.70;;;;;;6200705;28;20034;-74
2023/09/22 14:36:58;;;;;;;5.13;0.70;;;27.60;28.70;;;;;;6226637;28;20033;-74
2023/09/22 14:40:01;;;;;;;2.67;0.70;;;27.60;28.60;;;;;;6227436;28;20752;-73
2023/09/22 14:43:01;;;;;;;3.03;0.30;;;27.50;28.70;;;;;;6227217;28;20104;-74
2023/09/22 14:46:05;;;;;;;4.70;0.40;;;27.30;28.80;;;;;;6224007;28;20029;-75
2023/09/22 14:49:06;;;;;;;1.42;0.60;;;27.20;28.90;;;;;;6227787;28;20038;-76
2023/09/22 14:52:07;;;;;;;1.02;0.52;;;27.10;29.00;;;;;;6224293;28;20171;-74
2023/09/22 14:55:08;;;;;;;3.60;0.63;;;27.10;29.20;;;;;;6218350;28;20377;-74
2023/09/22 14:58:08;;;;;;;0.70;0.60;;;27.00;29.30;;;;;;6237782;28;20029;-76
2023/09/22 15:01:10;;;;;;;3.03;0.70;;;26.90;29.40;;;;;;6235756;28;20030;-75
2023/09/22 15:04:11;;;;;;;1.02;0.40;;;26.90;29.70;;;;;;6240570;28;20052;-75
2023/09/22 15:07:12;;;;;;;1.08;0.47;;;26.70;30.00;;;;;;6225496;28;20037;-74
2023/09/22 15:10:15;;;;;;;2.85;0.70;;;26.50;30.00;;;;;;6241403;28;20072;-76
2023/09/22 15:13:16;;;;;;;2.45;0.55;;;26.40;30.20;;;;;;6216696;28;20025;-75
2023/09/22 15:16:17;;;;;;;5.57;0.32;;;26.40;30.30;;;;;;6216128;28;20402;-79
2023/09/22 15:19:18;;;;;;;2.17;0.60;;;26.40;30.50;;;;;;6223992;28;20049;-74
2023/09/22 15:22:19;;;;;;;1.33;0.63;;;26.40;30.60;;;;;;6233226;28;20032;-74
2023/09/22 15:25:20;;;;;;;3.05;0.52;;;26.30;30.70;;;;;;6241621;28;20065;-75
2023/09/22 15:28:21;;;;;;;2.10;0.85;;;26.30;31.00;;;;;;6241702;28;20055;-75
2023/09/22 15:31:22;;;;;;;4.00;0.82;;;26.20;31.20;;;;;;6223154;28;20576;-74
2023/09/22 15:34:23;;;;;;;4.75;0.63;;;26.30;31.40;;;;;;6241404;28;20121;-74
2023/09/22 15:37:24;;;;;;;1.95;0.50;;;26.30;31.50;;;;;;6241250;28;20750;-74
2023/09/22 15:40:25;;;;;;;2.88;0.70;;;26.30;31.60;;;;;;6241148;28;20025;-74
2023/09/22 15:43:30;;;;;;;1.55;0.50;;;26.30;31.90;;;;;;6223292;28;20034;-74
2023/09/22 15:46:31;;;;;;;0.65;0.52;;;26.20;32.10;;;;;;6240628;28;20435;-75
2023/09/22 15:49:33;;;;;;;1.92;0.80;;;26.10;32.20;;;;;;6241296;28;20033;-75